createdAt,value
2019-05-03T00:00:15.076Z,10.05
2019-05-03T00:02:54.496Z,8.70
2019-05-03T00:05:34.066Z,6.65
2019-05-03T00:08:04.556Z,7.17
2019-05-03T00:10:33.601Z,9.38
2019-05-03T00:13:02.413Z,9.80
2019-05-03T00:15:32.823Z,8.53
2019-05-03T00:18:02.344Z,7.47
2019-05-03T00:20:32.656Z,5.92
2019-05-03T00:23:02.928Z,8.03
2019-05-03T00:25:32.649Z,8.63
2019-05-03T00:28:01.931Z,10.23
2019-05-03T00:30:32.018Z,10.95
2019-05-03T00:33:02.913Z,8.60
2019-05-03T00:35:42.461Z,8.33
2019-05-03T00:38:13.078Z,8.13
2019-05-03T00:40:41.918Z,9.98
2019-05-03T00:43:11.587Z,11.60
2019-05-03T00:45:42.230Z,10.25
2019-05-03T00:48:12.431Z,9.00
2019-05-03T00:50:42.566Z,11.70
2019-05-03T00:53:11.796Z,11.35
2019-05-03T00:55:41.969Z,10.53
2019-05-03T00:58:11.784Z,11.38
2019-05-03T01:00:41.793Z,12.18
2019-05-03T01:03:12.413Z,13.03
2019-05-03T01:05:42.338Z,13.30
2019-05-03T01:08:12.693Z,11.12
2019-05-03T01:10:42.153Z,12.58
2019-05-03T01:13:12.368Z,14.28
2019-05-03T01:15:43.127Z,11.40
2019-05-03T01:18:13.512Z,11.43
2019-05-03T01:20:42.707Z,11.03
2019-05-03T01:23:12.450Z,12.23
2019-05-03T01:25:42.876Z,11.63
2019-05-03T01:28:12.296Z,11.88
2019-05-03T01:30:42.520Z,10.25
2019-05-03T01:33:12.152Z,12.80
2019-05-03T01:35:42.763Z,11.25
2019-05-03T01:38:11.759Z,10.50
2019-05-03T01:40:41.952Z,11.18
2019-05-03T01:43:11.671Z,10.23
2019-05-03T01:45:42.459Z,11.10
2019-05-03T01:48:18.917Z,9.78
2019-05-03T01:51:02.823Z,11.97
2019-05-03T01:53:33.350Z,10.32
2019-05-03T01:56:03.631Z,11.93
2019-05-03T01:58:32.840Z,10.53
2019-05-03T02:01:19.382Z,9.10
2019-05-03T02:03:49.819Z,11.33
2019-05-03T02:06:18.574Z,10.72
2019-05-03T02:08:47.421Z,9.33
2019-05-03T02:11:16.251Z,12.28
2019-05-03T02:13:45.086Z,12.18
2019-05-03T02:16:13.940Z,10.53
2019-05-03T02:18:42.789Z,9.05
2019-05-03T02:21:12.224Z,11.65
2019-05-03T02:23:42.538Z,12.00
2019-05-03T02:26:11.827Z,14.23
2019-05-03T02:28:42.191Z,15.05
2019-05-03T02:31:13.394Z,11.55
2019-05-03T02:33:43.427Z,10.88
2019-05-03T02:36:13.673Z,9.70
2019-05-03T02:38:43.168Z,9.60
2019-05-03T02:41:13.479Z,15.08
2019-05-03T02:43:49.663Z,11.33
2019-05-03T02:46:20.077Z,8.98
2019-05-03T02:48:59.479Z,11.28
2019-05-03T02:51:28.298Z,8.75
2019-05-03T02:53:57.447Z,10.43
2019-05-03T02:56:26.522Z,10.48
2019-05-03T02:58:56.020Z,11.50
2019-05-03T03:01:26.462Z,9.65
2019-05-03T03:03:56.926Z,8.53
2019-05-03T03:06:27.197Z,9.93
2019-05-03T03:08:58.581Z,8.08
2019-05-03T03:11:30.277Z,9.90
2019-05-03T03:14:01.889Z,10.75
2019-05-03T03:16:35.906Z,11.38
2019-05-03T03:19:06.568Z,11.00
2019-05-03T03:21:38.923Z,9.05
2019-05-03T03:24:16.349Z,8.45
2019-05-03T03:26:47.050Z,9.60
2019-05-03T03:29:16.438Z,12.50
2019-05-03T03:31:51.091Z,12.50
2019-05-03T03:34:27.493Z,13.28
2019-05-03T03:37:04.226Z,12.65
2019-05-03T03:39:26.274Z,11.97
2019-05-03T03:41:56.313Z,11.05
2019-05-03T03:44:27.026Z,10.35
2019-05-03T03:46:57.960Z,14.07
2019-05-03T03:49:28.780Z,11.97
2019-05-03T03:52:00.314Z,12.60
2019-05-03T03:54:32.108Z,12.37
2019-05-03T03:57:04.855Z,13.68
2019-05-03T03:59:32.318Z,12.30
2019-05-03T04:02:01.746Z,12.75
2019-05-03T04:04:30.676Z,10.55
2019-05-03T04:07:01.393Z,12.28
2019-05-03T04:09:30.726Z,10.75
2019-05-03T04:11:59.541Z,12.15
2019-05-03T04:14:30.273Z,11.30
2019-05-03T04:17:00.776Z,11.50
2019-05-03T04:19:31.495Z,11.33
2019-05-03T04:22:00.432Z,11.68
2019-05-03T04:24:30.996Z,12.40
2019-05-03T04:27:18.648Z,13.48
2019-05-03T04:29:38.569Z,11.63
2019-05-03T04:32:09.898Z,13.85
2019-05-03T04:34:38.766Z,11.67
2019-05-03T04:37:07.583Z,12.95
2019-05-03T04:39:36.440Z,12.68
2019-05-03T04:42:06.752Z,12.28
2019-05-03T04:44:36.069Z,13.28
2019-05-03T04:47:06.943Z,12.05
2019-05-03T04:49:36.342Z,12.63
2019-05-03T04:52:06.237Z,13.98
2019-05-03T04:54:36.847Z,19.30
2019-05-03T04:57:06.562Z,11.12
2019-05-03T04:59:35.967Z,12.18
2019-05-03T05:02:06.060Z,13.72
2019-05-03T05:04:35.892Z,14.75
2019-05-03T05:07:06.235Z,14.50
2019-05-03T05:09:35.371Z,12.60
2019-05-03T05:12:05.649Z,12.75
2019-05-03T05:14:35.397Z,14.38
2019-05-03T05:17:06.064Z,14.45
2019-05-03T05:19:36.939Z,13.15
2019-05-03T05:22:10.059Z,16.45
2019-05-03T05:24:38.933Z,12.98
2019-05-03T05:27:09.345Z,11.90
2019-05-03T05:29:39.780Z,13.20
2019-05-03T05:32:08.579Z,13.25
2019-05-03T05:34:37.455Z,13.03
2019-05-03T05:37:06.267Z,12.88
2019-05-03T05:39:35.674Z,11.88
2019-05-03T05:42:04.647Z,13.53
2019-05-03T05:44:35.249Z,9.83
2019-05-03T05:47:11.612Z,11.93
2019-05-03T05:49:47.829Z,14.28
2019-05-03T05:52:16.654Z,10.20
2019-05-03T05:54:47.052Z,13.40
2019-05-03T05:57:26.714Z,12.37
2019-05-03T05:59:59.946Z,15.05
2019-05-03T06:02:28.825Z,10.90
2019-05-03T06:04:57.626Z,14.05
2019-05-03T06:07:30.779Z,15.25
2019-05-03T06:10:05.264Z,13.13
2019-05-03T06:12:41.890Z,13.95
2019-05-03T06:15:15.096Z,12.50
2019-05-03T06:17:55.483Z,14.03
2019-05-03T06:20:32.152Z,17.98
2019-05-03T06:23:02.581Z,12.33
2019-05-03T06:25:35.217Z,14.80
2019-05-03T06:28:16.959Z,13.85
2019-05-03T06:30:54.490Z,12.93
2019-05-03T06:33:24.519Z,10.20
2019-05-03T06:35:54.707Z,12.68
2019-05-03T06:38:24.422Z,11.20
2019-05-03T06:40:54.424Z,11.33
2019-05-03T06:43:24.478Z,13.20
2019-05-03T06:45:54.822Z,11.28
2019-05-03T06:48:28.026Z,10.80
2019-05-03T06:50:55.772Z,19.48
2019-05-03T06:53:25.418Z,25.02
2019-05-03T06:55:55.410Z,25.48
2019-05-03T06:58:31.322Z,11.90
2019-05-03T07:00:56.455Z,11.85
2019-05-03T07:03:44.788Z,11.48
2019-05-03T07:06:18.132Z,12.60
2019-05-03T07:08:48.547Z,13.55
2019-05-03T07:11:17.390Z,13.15
2019-05-03T07:13:46.244Z,11.22
2019-05-03T07:16:15.102Z,9.55
2019-05-03T07:18:45.458Z,9.88
2019-05-03T07:21:15.227Z,12.53
2019-05-03T07:23:45.075Z,9.55
2019-05-03T07:26:15.126Z,13.55
2019-05-03T07:28:47.819Z,10.18
2019-05-03T07:31:15.082Z,11.05
2019-05-03T07:33:44.685Z,11.30
2019-05-03T07:36:15.319Z,11.10
2019-05-03T07:38:45.375Z,10.72
2019-05-03T07:41:14.970Z,9.45
2019-05-03T07:43:45.063Z,11.85
2019-05-03T07:46:14.678Z,12.28
2019-05-03T07:48:45.722Z,9.65
2019-05-03T07:51:14.550Z,10.63
2019-05-03T07:53:45.130Z,9.63
2019-05-03T07:56:15.797Z,11.40
2019-05-03T07:58:59.972Z,10.20
2019-05-03T08:01:35.374Z,10.00
2019-05-03T08:04:05.435Z,10.88
2019-05-03T08:06:34.695Z,12.73
2019-05-03T08:09:05.918Z,10.53
2019-05-03T08:11:35.261Z,12.33
2019-05-03T08:14:05.536Z,14.95
2019-05-03T08:16:35.240Z,11.75
2019-05-03T08:19:04.906Z,12.30
2019-05-03T08:21:38.198Z,9.55
2019-05-03T08:24:04.825Z,11.55
2019-05-03T08:26:35.052Z,9.25
2019-05-03T08:29:15.294Z,13.08
2019-05-03T08:31:42.141Z,9.70
2019-05-03T08:34:12.557Z,7.92
2019-05-03T08:37:01.077Z,9.75
2019-05-03T08:39:29.919Z,9.08
2019-05-03T08:42:04.656Z,8.28
2019-05-03T08:44:35.205Z,9.40
2019-05-03T08:47:05.214Z,9.90
2019-05-03T08:49:34.849Z,9.48
2019-05-03T08:52:05.472Z,10.10
2019-05-03T08:54:34.872Z,8.95
2019-05-03T08:57:06.020Z,10.93
2019-05-03T08:59:35.757Z,12.03
2019-05-03T09:02:14.014Z,10.68
2019-05-03T09:04:38.617Z,13.10
2019-05-03T09:07:06.823Z,13.03
2019-05-03T09:09:46.194Z,10.72
2019-05-03T09:12:14.979Z,10.53
2019-05-03T09:14:46.382Z,11.20
2019-05-03T09:17:15.274Z,12.80
2019-05-03T09:19:45.349Z,10.72
2019-05-03T09:22:14.857Z,9.28
2019-05-03T09:24:45.564Z,9.18
2019-05-03T09:27:15.433Z,11.30
2019-05-03T09:29:46.184Z,11.48
2019-05-03T09:32:15.079Z,12.07
2019-05-03T09:34:44.477Z,10.25
2019-05-03T09:37:15.346Z,10.72
2019-05-03T09:39:44.577Z,10.48
2019-05-03T09:42:15.387Z,11.57
2019-05-03T09:44:45.036Z,14.35
2019-05-03T09:47:14.679Z,13.32
2019-05-03T09:49:45.389Z,12.88
2019-05-03T09:52:16.071Z,10.15
2019-05-03T09:54:46.464Z,15.68
2019-05-03T09:57:15.359Z,10.63
2019-05-03T09:59:56.465Z,12.47
2019-05-03T10:02:15.190Z,11.75
2019-05-03T10:04:44.691Z,11.30
2019-05-03T10:07:15.372Z,10.05
2019-05-03T10:09:45.055Z,11.20
2019-05-03T10:12:16.142Z,8.85
2019-05-03T10:14:45.546Z,9.15
2019-05-03T10:17:16.055Z,12.70
2019-05-03T10:19:45.222Z,10.55
2019-05-03T10:22:15.370Z,12.50
2019-05-03T10:24:45.260Z,14.50
2019-05-03T10:27:15.225Z,10.72
2019-05-03T10:29:44.782Z,10.98
2019-05-03T10:32:17.731Z,16.82
2019-05-03T10:35:05.666Z,12.07
2019-05-03T10:37:35.870Z,14.38
2019-05-03T10:40:08.052Z,16.00
2019-05-03T10:42:36.209Z,9.30
2019-05-03T10:45:06.473Z,12.07
2019-05-03T10:47:35.300Z,9.20
2019-05-03T10:50:09.055Z,8.23
2019-05-03T10:52:44.206Z,11.83
2019-05-03T10:55:12.889Z,9.18
2019-05-03T10:57:44.976Z,10.48
2019-05-03T11:00:41.670Z,12.68
2019-05-03T11:02:55.079Z,15.28
2019-05-03T11:05:24.093Z,8.78
2019-05-03T11:07:52.950Z,9.25
2019-05-03T11:10:21.811Z,13.18
2019-05-03T11:12:50.637Z,12.75
2019-05-03T11:15:19.488Z,13.53
2019-05-03T11:17:48.309Z,12.90
2019-05-03T11:20:28.540Z,9.80
2019-05-03T11:22:50.563Z,9.10
2019-05-03T11:25:19.424Z,8.18
2019-05-03T11:27:49.823Z,5.37
2019-05-03T11:30:19.344Z,6.58
2019-05-03T11:32:50.107Z,8.58
2019-05-03T11:35:24.681Z,6.60
2019-05-03T11:38:11.758Z,3.08
2019-05-03T11:40:40.613Z,4.97
2019-05-03T11:43:09.434Z,5.45
2019-05-03T11:45:38.306Z,3.72
2019-05-03T11:48:07.131Z,5.72
2019-05-03T11:50:35.985Z,5.05
2019-05-03T11:53:05.256Z,4.00
2019-05-03T11:55:35.254Z,4.25
2019-05-03T11:58:06.039Z,5.15
2019-05-03T12:00:36.467Z,4.53
2019-05-03T12:03:06.844Z,2.83
2019-05-03T12:05:35.714Z,3.67
2019-05-03T12:08:05.440Z,2.65
2019-05-03T12:10:50.310Z,3.45
2019-05-03T12:13:06.491Z,1.65
2019-05-03T12:15:35.447Z,2.85
2019-05-03T12:18:06.765Z,3.42
2019-05-03T12:23:06.844Z,1.27
2019-05-03T12:25:37.129Z,2.72
2019-05-03T12:28:06.523Z,2.08
2019-05-03T12:30:35.639Z,1.82
2019-05-03T12:33:05.907Z,2.47
2019-05-03T12:35:35.706Z,6.10
2019-05-03T12:38:05.651Z,3.00
2019-05-03T12:40:35.571Z,2.42
2019-05-03T12:43:06.077Z,3.47
2019-05-03T12:45:35.573Z,2.05
2019-05-03T12:48:05.330Z,2.87
2019-05-03T12:50:34.696Z,5.05
2019-05-03T12:53:04.791Z,1.82
2019-05-03T12:55:35.572Z,3.33
2019-05-03T12:58:06.444Z,3.70
2019-05-03T13:00:44.959Z,1.60
2019-05-03T13:03:15.214Z,2.72
2019-05-03T13:05:45.004Z,3.65
2019-05-03T13:08:41.129Z,1.92
2019-05-03T13:11:10.060Z,2.20
2019-05-03T13:13:38.912Z,3.67
2019-05-03T13:16:07.723Z,2.65
2019-05-03T13:18:36.587Z,2.55
2019-05-03T13:21:06.010Z,2.47
2019-05-03T13:23:35.436Z,3.05
2019-05-03T13:26:05.669Z,4.12
2019-05-03T13:28:35.331Z,3.05
2019-05-03T13:31:05.793Z,6.33
2019-05-03T13:33:35.073Z,2.47
2019-05-03T13:36:04.887Z,4.62
2019-05-03T13:38:35.025Z,8.88
2019-05-03T13:41:06.217Z,3.22
2019-05-03T13:43:34.918Z,4.58
2019-05-03T13:46:05.197Z,7.15
2019-05-03T13:48:42.750Z,7.33
2019-05-03T13:51:05.270Z,7.70
2019-05-03T13:53:34.854Z,10.78
2019-05-03T13:56:04.807Z,10.28
2019-05-03T13:58:35.724Z,12.43
2019-05-03T14:01:05.547Z,8.93
2019-05-03T14:03:35.288Z,6.90
2019-05-03T14:06:08.694Z,8.20
2019-05-03T14:08:35.134Z,6.45
2019-05-03T14:11:05.041Z,4.90
2019-05-03T14:13:35.367Z,4.37
2019-05-03T14:16:05.968Z,3.25
2019-05-03T14:18:35.582Z,4.30
2019-05-03T14:21:06.194Z,3.98
2019-05-03T14:23:36.588Z,5.62
2019-05-03T14:26:05.437Z,5.17
2019-05-03T14:28:34.630Z,4.03
2019-05-03T14:31:05.225Z,4.42
2019-05-03T14:33:35.403Z,4.90
2019-05-03T14:36:05.326Z,3.60
2019-05-03T14:38:34.345Z,7.30
2019-05-03T14:41:05.374Z,2.25
2019-05-03T14:43:35.494Z,4.33
2019-05-03T14:46:05.610Z,3.15
2019-05-03T14:48:35.129Z,3.25
2019-05-03T14:51:07.478Z,4.25
2019-05-03T14:53:36.353Z,4.40
2019-05-03T14:56:18.742Z,4.20
2019-05-03T15:01:27.559Z,5.78
2019-05-03T15:03:56.397Z,6.60
2019-05-03T15:06:25.209Z,7.05
2019-05-03T15:08:54.733Z,6.42
2019-05-03T15:11:23.782Z,3.80
2019-05-03T15:13:52.642Z,3.12
2019-05-03T15:16:21.488Z,9.83
2019-05-03T15:18:50.318Z,2.80
2019-05-03T15:21:19.168Z,3.20
2019-05-03T15:23:47.979Z,7.03
2019-05-03T15:26:16.871Z,3.25
2019-05-03T15:28:45.683Z,4.42
2019-05-03T15:31:14.667Z,4.12
2019-05-03T15:33:44.922Z,3.33
2019-05-03T15:36:15.407Z,3.12
2019-05-03T15:38:44.638Z,2.35
2019-05-03T15:41:14.683Z,3.25
2019-05-03T15:43:45.494Z,4.08
2019-05-03T15:46:15.862Z,6.33
2019-05-03T15:48:46.269Z,4.83
2019-05-03T15:51:15.167Z,5.05
2019-05-03T15:53:44.403Z,5.25
2019-05-03T15:56:14.702Z,6.45
2019-05-03T15:58:46.441Z,2.77
2019-05-03T16:01:15.320Z,4.15
2019-05-03T16:03:44.974Z,4.25
2019-05-03T16:06:15.548Z,7.33
2019-05-03T16:08:44.676Z,3.00
2019-05-03T16:11:14.818Z,4.72
2019-05-03T16:13:45.038Z,4.37
2019-05-03T16:16:15.221Z,2.50
2019-05-03T16:18:44.817Z,3.50
2019-05-03T16:21:14.637Z,5.25
2019-05-03T16:23:46.199Z,4.72
2019-05-03T16:26:14.673Z,4.60
2019-05-03T16:28:46.454Z,4.35
2019-05-03T16:31:17.073Z,5.67
2019-05-03T16:33:45.852Z,4.33
2019-05-03T16:36:14.888Z,8.95
2019-05-03T16:38:44.929Z,6.83
2019-05-03T16:41:17.433Z,7.10
2019-05-03T16:43:45.536Z,12.58
2019-05-03T16:46:14.697Z,5.80
2019-05-03T16:48:44.827Z,3.42
2019-05-03T16:51:15.157Z,6.12
2019-05-03T16:53:44.685Z,3.30
2019-05-03T16:56:15.841Z,4.20
2019-05-03T16:58:44.662Z,7.75
2019-05-03T17:01:17.790Z,5.47
2019-05-03T17:03:48.745Z,4.37
2019-05-03T17:06:21.978Z,7.60
2019-05-03T17:09:08.794Z,4.80
2019-05-03T17:11:37.621Z,4.70
2019-05-03T17:14:06.506Z,8.75
2019-05-03T17:16:35.340Z,5.37
2019-05-03T17:19:05.885Z,5.60
2019-05-03T17:21:35.037Z,6.55
2019-05-03T17:24:04.361Z,8.85
2019-05-03T17:26:35.162Z,7.45
2019-05-03T17:29:04.644Z,7.00
2019-05-03T17:31:35.189Z,7.33
2019-05-03T17:34:05.558Z,7.83
2019-05-03T17:36:34.545Z,8.13
2019-05-03T17:39:04.927Z,9.28
2019-05-03T17:41:35.359Z,9.75
2019-05-03T17:44:05.777Z,12.07
2019-05-03T17:46:34.826Z,8.33
2019-05-03T17:49:05.260Z,10.10
2019-05-03T17:51:41.971Z,10.58
2019-05-03T17:54:27.681Z,9.20
2019-05-03T17:56:58.092Z,11.97
2019-05-03T17:59:28.507Z,11.45
2019-05-03T18:02:15.323Z,11.45
2019-05-03T18:04:52.031Z,10.18
2019-05-03T18:07:25.107Z,11.18
2019-05-03T18:09:55.527Z,10.50
2019-05-03T18:12:24.412Z,8.93
2019-05-03T18:14:55.320Z,9.43
2019-05-03T18:17:24.771Z,9.28
2019-05-03T18:19:55.323Z,10.23
2019-05-03T18:22:24.404Z,11.30
2019-05-03T18:24:54.602Z,9.20
2019-05-03T18:27:25.057Z,10.32
2019-05-03T18:29:55.417Z,11.88
2019-05-03T18:32:25.188Z,10.13
2019-05-03T18:34:54.631Z,9.78
2019-05-03T18:37:24.518Z,10.75
2019-05-03T18:39:54.687Z,10.13
2019-05-03T18:42:30.645Z,9.45
2019-05-03T18:45:09.905Z,7.75
2019-05-03T18:47:38.725Z,9.45
2019-05-03T18:50:08.481Z,12.45
2019-05-03T18:52:37.287Z,8.35
2019-05-03T18:55:07.332Z,7.08
2019-05-03T18:57:36.389Z,10.03
2019-05-03T19:00:08.770Z,8.73
2019-05-03T19:02:37.627Z,7.85
2019-05-03T19:05:07.864Z,7.03
2019-05-03T19:07:41.012Z,8.45
2019-05-03T19:10:11.783Z,6.50
2019-05-03T19:12:42.208Z,7.30
2019-05-03T19:15:11.925Z,8.20
2019-05-03T19:17:42.354Z,6.75
2019-05-03T19:20:12.720Z,6.20
2019-05-03T19:22:41.581Z,6.65
2019-05-03T19:25:10.416Z,11.12
2019-05-03T19:27:39.269Z,5.33
2019-05-03T19:30:08.384Z,6.47
2019-05-03T19:32:37.254Z,6.87
2019-05-03T19:35:08.755Z,7.60
2019-05-03T19:37:37.619Z,5.97
2019-05-03T19:40:07.731Z,5.37
2019-05-03T19:42:36.583Z,10.85
2019-05-03T19:45:06.356Z,7.20
2019-05-03T19:47:35.400Z,6.75
2019-05-03T19:50:06.434Z,9.48
2019-05-03T19:52:39.259Z,8.68
2019-05-03T19:55:08.135Z,6.25
2019-05-03T19:57:41.299Z,7.67
2019-05-03T20:00:10.755Z,8.65
2019-05-03T20:02:41.135Z,7.85
2019-05-03T20:05:28.419Z,9.35
2019-05-03T20:08:16.920Z,10.80
2019-05-03T20:10:46.274Z,10.05
2019-05-03T20:13:15.234Z,10.63
2019-05-03T20:15:45.042Z,11.50
2019-05-03T20:18:15.246Z,11.48
2019-05-03T20:20:44.754Z,12.25
2019-05-03T20:23:14.654Z,12.53
2019-05-03T20:25:43.775Z,13.18
2019-05-03T20:28:12.645Z,14.70
2019-05-03T20:30:41.658Z,11.75
2019-05-03T20:33:10.536Z,15.28
2019-05-03T20:35:39.347Z,13.35
2019-05-03T20:38:08.198Z,15.40
2019-05-03T20:40:37.017Z,15.55
2019-05-03T20:43:07.476Z,17.45
2019-05-03T20:45:37.897Z,16.05
2019-05-03T20:48:08.287Z,15.13
2019-05-03T20:50:37.152Z,15.75
2019-05-03T20:53:05.996Z,16.80
2019-05-03T20:55:34.889Z,16.67
2019-05-03T20:58:05.183Z,16.32
2019-05-03T21:00:34.557Z,16.93
2019-05-03T21:03:04.943Z,14.70
2019-05-03T21:05:35.372Z,15.95
2019-05-03T21:08:05.579Z,16.00
2019-05-03T21:10:34.838Z,16.32
2019-05-03T21:13:05.445Z,13.38
2019-05-03T21:15:52.126Z,16.02
2019-05-03T21:18:37.791Z,16.75
2019-05-03T21:21:17.066Z,15.43
2019-05-03T21:24:02.440Z,13.68
2019-05-03T21:26:31.317Z,14.68
2019-05-03T21:29:00.146Z,14.25
2019-05-03T21:31:28.985Z,17.45
2019-05-03T21:33:57.854Z,15.30
2019-05-03T21:36:26.668Z,16.90
2019-05-03T21:38:55.534Z,20.23
2019-05-03T21:41:24.724Z,18.80
2019-05-03T21:43:54.541Z,17.10
2019-05-03T21:46:40.589Z,15.68
2019-05-03T21:49:10.980Z,23.15
2019-05-03T21:51:39.814Z,15.45
2019-05-03T21:54:08.663Z,21.15
2019-05-03T21:56:37.479Z,20.40
2019-05-03T21:59:06.346Z,17.52
2019-05-03T22:01:37.484Z,17.82
2019-05-03T22:04:06.640Z,18.32
2019-05-03T22:06:35.463Z,21.40
2019-05-03T22:09:05.721Z,19.87
2019-05-03T22:11:34.583Z,19.10
2019-05-03T22:14:05.003Z,19.48
2019-05-03T22:16:35.411Z,17.45
2019-05-03T22:19:05.061Z,21.42
2019-05-03T22:21:36.974Z,22.00
2019-05-03T22:24:07.629Z,19.75
2019-05-03T22:26:53.121Z,17.85
2019-05-03T22:29:21.989Z,20.23
2019-05-03T22:31:50.809Z,19.65
2019-05-03T22:34:19.616Z,18.92
2019-05-03T22:36:48.482Z,18.73
2019-05-03T22:39:17.316Z,20.60
2019-05-03T22:41:46.160Z,19.55
2019-05-03T22:44:17.058Z,19.00
2019-05-03T22:46:45.518Z,18.27
2019-05-03T22:49:15.604Z,21.37
2019-05-03T22:51:45.192Z,22.22
2019-05-03T22:54:15.347Z,23.12
2019-05-03T22:56:44.899Z,23.07
2019-05-03T22:59:14.890Z,24.85
2019-05-03T23:01:45.787Z,24.87
2019-05-03T23:04:14.832Z,23.25
2019-05-03T23:06:46.816Z,25.17
2019-05-03T23:09:15.872Z,25.27
2019-05-03T23:11:45.086Z,24.67
2019-05-03T23:14:15.062Z,27.13
2019-05-03T23:16:44.774Z,24.67
2019-05-03T23:19:15.017Z,25.92
2019-05-03T23:21:48.401Z,26.23
2019-05-03T23:24:17.211Z,26.87
2019-05-03T23:26:46.059Z,25.60
2019-05-03T23:29:14.889Z,24.80
2019-05-03T23:31:44.848Z,24.23
2019-05-03T23:34:13.992Z,27.13
2019-05-03T23:36:42.836Z,26.55
2019-05-03T23:39:11.647Z,25.17
2019-05-03T23:41:40.544Z,28.27
2019-05-03T23:44:09.409Z,26.12
2019-05-03T23:46:39.801Z,26.57
2019-05-03T23:49:08.688Z,29.00
2019-05-03T23:51:48.082Z,27.60
2019-05-03T23:54:16.973Z,26.75
2019-05-03T23:56:45.969Z,26.20
2019-05-03T23:59:15.103Z,26.02
